sensor_id;sensor_type;location;lat;lon;timestamp;pressure;altitude;pressure_sealevel;temperature;humidity
55671;BME280;41551;47.500;8.408;2022-08-01T00:01:23;96386.97;;;19.75;70.19
55671;BME280;41551;47.500;8.408;2022-08-01T00:03:50;96378.69;;;19.63;70.75
55671;BME280;41551;47.500;8.408;2022-08-01T00:06:18;96377.28;;;19.65;71.00
55671;BME280;41551;47.500;8.408;2022-08-01T00:08:45;96376.59;;;19.60;71.01
55671;BME280;41551;47.500;8.408;2022-08-01T00:11:12;96374.75;;;19.60;71.29
55671;BME280;41551;47.500;8.408;2022-08-01T00:13:39;96379.88;;;19.57;71.55
55671;BME280;41551;47.500;8.408;2022-08-01T00:16:06;96378.91;;;19.52;72.32
55671;BME280;41551;47.500;8.408;2022-08-01T00:18:32;96367.69;;;19.50;72.31
55671;BME280;41551;47.500;8.408;2022-08-01T00:21:06;96373.66;;;19.47;72.08
55671;BME280;41551;47.500;8.408;2022-08-01T00:23:34;96373.84;;;19.37;72.89
55671;BME280;41551;47.500;8.408;2022-08-01T00:26:01;96374.25;;;19.30;73.51
55671;BME280;41551;47.500;8.408;2022-08-01T00:28:28;96384.66;;;19.32;74.11
55671;BME280;41551;47.500;8.408;2022-08-01T00:30:55;96374.16;;;19.22;74.97
55671;BME280;41551;47.500;8.408;2022-08-01T00:33:21;96375.94;;;19.12;75.31
55671;BME280;41551;47.500;8.408;2022-08-01T00:35:48;96381.41;;;19.07;76.10
55671;BME280;41551;47.500;8.408;2022-08-01T00:38:15;96379.38;;;18.99;76.43
55671;BME280;41551;47.500;8.408;2022-08-01T00:40:43;96379.97;;;18.96;76.75
55671;BME280;41551;47.500;8.408;2022-08-01T00:43:10;96387.81;;;18.92;77.30
55671;BME280;41551;47.500;8.408;2022-08-01T00:45:37;96383.34;;;18.88;78.25
55671;BME280;41551;47.500;8.408;2022-08-01T00:48:04;96379.69;;;19.11;76.89
55671;BME280;41551;47.500;8.408;2022-08-01T00:50:31;96376.22;;;19.25;75.15
55671;BME280;41551;47.500;8.408;2022-08-01T00:52:59;96374.38;;;19.25;74.38
55671;BME280;41551;47.500;8.408;2022-08-01T00:55:26;96383.06;;;19.31;73.88
55671;BME280;41551;47.500;8.408;2022-08-01T00:57:55;96372.38;;;19.31;73.87
55671;BME280;41551;47.500;8.408;2022-08-01T01:00:22;96378.91;;;19.25;75.26
55671;BME280;41551;47.500;8.408;2022-08-01T01:02:49;96373.44;;;19.16;76.07
55671;BME280;41551;47.500;8.408;2022-08-01T01:05:16;96386.16;;;19.10;77.16
55671;BME280;41551;47.500;8.408;2022-08-01T01:07:48;96373.97;;;19.04;77.59
55671;BME280;41551;47.500;8.408;2022-08-01T01:10:21;96389.59;;;18.97;78.47
55671;BME280;41551;47.500;8.408;2022-08-01T01:12:53;96379.19;;;18.95;78.74
55671;BME280;41551;47.500;8.408;2022-08-01T01:15:26;96382.84;;;18.86;79.82
55671;BME280;41551;47.500;8.408;2022-08-01T01:18:00;96379.09;;;18.87;79.95
55671;BME280;41551;47.500;8.408;2022-08-01T01:20:30;96381.25;;;18.85;79.95
55671;BME280;41551;47.500;8.408;2022-08-01T01:23:21;96377.75;;;18.84;79.89
55671;BME280;41551;47.500;8.408;2022-08-01T01:26:21;96380.22;;;18.80;80.17
55671;BME280;41551;47.500;8.408;2022-08-01T01:28:59;96380.81;;;18.77;80.85
55671;BME280;41551;47.500;8.408;2022-08-01T01:31:29;96383.50;;;18.77;80.58
55671;BME280;41551;47.500;8.408;2022-08-01T01:33:59;96379.88;;;18.87;79.41
55671;BME280;41551;47.500;8.408;2022-08-01T01:36:30;96379.09;;;18.87;79.22
55671;BME280;41551;47.500;8.408;2022-08-01T01:38:58;96380.16;;;18.86;79.32
55671;BME280;41551;47.500;8.408;2022-08-01T01:41:28;96377.97;;;18.74;80.21
55671;BME280;41551;47.500;8.408;2022-08-01T01:43:57;96377.91;;;18.93;78.74
55671;BME280;41551;47.500;8.408;2022-08-01T01:46:28;96381.09;;;18.95;78.79
55671;BME280;41551;47.500;8.408;2022-08-01T01:48:56;96375.53;;;18.91;79.29
55671;BME280;41551;47.500;8.408;2022-08-01T01:51:25;96373.28;;;18.79;79.81
55671;BME280;41551;47.500;8.408;2022-08-01T01:53:53;96375.25;;;18.60;81.55
55671;BME280;41551;47.500;8.408;2022-08-01T01:56:21;96382.75;;;18.58;82.15
55671;BME280;41551;47.500;8.408;2022-08-01T01:58:50;96388.09;;;18.58;82.11
55671;BME280;41551;47.500;8.408;2022-08-01T02:01:20;96386.09;;;18.50;82.16
55671;BME280;41551;47.500;8.408;2022-08-01T02:03:48;96388.78;;;18.50;82.11
55671;BME280;41551;47.500;8.408;2022-08-01T02:06:15;96391.59;;;18.39;84.03
55671;BME280;41551;47.500;8.408;2022-08-01T02:08:45;96392.94;;;18.56;82.00
55671;BME280;41551;47.500;8.408;2022-08-01T02:11:13;96385.72;;;18.56;82.27
55671;BME280;41551;47.500;8.408;2022-08-01T02:13:50;96381.34;;;18.46;82.85
55671;BME280;41551;47.500;8.408;2022-08-01T02:16:21;96383.25;;;18.27;84.13
55671;BME280;41551;47.500;8.408;2022-08-01T02:18:49;96391.13;;;18.18;84.83
55671;BME280;41551;47.500;8.408;2022-08-01T02:21:20;96390.41;;;18.13;85.12
55671;BME280;41551;47.500;8.408;2022-08-01T02:23:50;96391.50;;;18.11;85.49
55671;BME280;41551;47.500;8.408;2022-08-01T02:26:18;96382.97;;;18.09;86.12
55671;BME280;41551;47.500;8.408;2022-08-01T02:28:49;96391.56;;;18.06;86.00
55671;BME280;41551;47.500;8.408;2022-08-01T02:31:20;96392.09;;;18.08;85.24
55671;BME280;41551;47.500;8.408;2022-08-01T02:33:54;96392.44;;;18.02;85.93
55671;BME280;41551;47.500;8.408;2022-08-01T02:36:25;96391.69;;;17.96;87.22
55671;BME280;41551;47.500;8.408;2022-08-01T02:38:54;96402.47;;;17.91;88.39
55671;BME280;41551;47.500;8.408;2022-08-01T02:41:23;96397.47;;;17.84;88.79
55671;BME280;41551;47.500;8.408;2022-08-01T02:43:53;96401.97;;;17.84;89.87
55671;BME280;41551;47.500;8.408;2022-08-01T02:46:30;96397.09;;;17.72;90.09
55671;BME280;41551;47.500;8.408;2022-08-01T02:49:03;96394.84;;;17.60;90.85
55671;BME280;41551;47.500;8.408;2022-08-01T02:51:31;96394.38;;;17.53;91.27
55671;BME280;41551;47.500;8.408;2022-08-01T02:54:00;96398.66;;;17.54;91.32
55671;BME280;41551;47.500;8.408;2022-08-01T02:56:29;96392.56;;;17.48;92.19
55671;BME280;41551;47.500;8.408;2022-08-01T02:59:04;96393.31;;;17.54;91.70
55671;BME280;41551;47.500;8.408;2022-08-01T03:01:34;96392.78;;;17.52;91.68
55671;BME280;41551;47.500;8.408;2022-08-01T03:04:03;96395.03;;;17.45;92.14
55671;BME280;41551;47.500;8.408;2022-08-01T03:06:31;96388.88;;;17.44;91.61
55671;BME280;41551;47.500;8.408;2022-08-01T03:09:00;96391.06;;;17.42;92.89
55671;BME280;41551;47.500;8.408;2022-08-01T03:11:28;96392.97;;;17.36;93.90
55671;BME280;41551;47.500;8.408;2022-08-01T03:13:56;96395.75;;;17.26;94.68
55671;BME280;41551;47.500;8.408;2022-08-01T03:16:25;96398.03;;;17.14;96.01
55671;BME280;41551;47.500;8.408;2022-08-01T03:18:56;96397.63;;;17.01;97.31
55671;BME280;41551;47.500;8.408;2022-08-01T03:21:23;96389.44;;;16.93;98.45
55671;BME280;41551;47.500;8.408;2022-08-01T03:23:51;96392.97;;;16.88;98.85
55671;BME280;41551;47.500;8.408;2022-08-01T03:26:24;96399.38;;;16.82;99.12
55671;BME280;41551;47.500;8.408;2022-08-01T03:28:55;96397.00;;;16.80;99.31
55671;BME280;41551;47.500;8.408;2022-08-01T03:31:24;96402.34;;;16.80;99.86
55671;BME280;41551;47.500;8.408;2022-08-01T03:33:51;96405.63;;;16.72;100.00
55671;BME280;41551;47.500;8.408;2022-08-01T03:36:23;96399.03;;;16.64;100.00
55671;BME280;41551;47.500;8.408;2022-08-01T03:38:52;96396.78;;;16.77;99.64
55671;BME280;41551;47.500;8.408;2022-08-01T03:41:24;96413.22;;;16.89;98.45
55671;BME280;41551;47.500;8.408;2022-08-01T03:43:55;96408.91;;;16.93;96.82
55671;BME280;41551;47.500;8.408;2022-08-01T03:46:28;96408.94;;;16.88;98.28
55671;BME280;41551;47.500;8.408;2022-08-01T03:48:58;96408.41;;;16.86;98.66
55671;BME280;41551;47.500;8.408;2022-08-01T03:51:29;96402.59;;;16.84;98.42
55671;BME280;41551;47.500;8.408;2022-08-01T03:53:59;96416.47;;;16.81;99.19
55671;BME280;41551;47.500;8.408;2022-08-01T03:56:27;96409.81;;;16.78;99.23
55671;BME280;41551;47.500;8.408;2022-08-01T03:58:58;96417.03;;;16.78;98.57
55671;BME280;41551;47.500;8.408;2022-08-01T04:01:25;96411.69;;;16.78;99.23
55671;BME280;41551;47.500;8.408;2022-08-01T04:03:53;96422.91;;;16.75;99.13
55671;BME280;41551;47.500;8.408;2022-08-01T04:06:20;96415.16;;;16.73;98.95
55671;BME280;41551;47.500;8.408;2022-08-01T04:08:49;96420.25;;;16.75;99.02
55671;BME280;41551;47.500;8.408;2022-08-01T04:11:23;96418.31;;;16.80;98.29
55671;BME280;41551;47.500;8.408;2022-08-01T04:13:51;96417.31;;;16.76;98.46
55671;BME280;41551;47.500;8.408;2022-08-01T04:16:18;96413.25;;;16.79;98.43
55671;BME280;41551;47.500;8.408;2022-08-01T04:18:45;96414.38;;;16.78;99.01
55671;BME280;41551;47.500;8.408;2022-08-01T04:21:12;96415.94;;;16.79;98.82
55671;BME280;41551;47.500;8.408;2022-08-01T04:23:40;96416.41;;;16.86;97.53
55671;BME280;41551;47.500;8.408;2022-08-01T04:26:10;96414.75;;;16.95;95.98
55671;BME280;41551;47.500;8.408;2022-08-01T04:28:39;96419.06;;;16.86;96.97
55671;BME280;41551;47.500;8.408;2022-08-01T04:31:17;96415.31;;;16.92;96.31
55671;BME280;41551;47.500;8.408;2022-08-01T04:33:47;96414.75;;;16.95;95.92
55671;BME280;41551;47.500;8.408;2022-08-01T04:36:17;96417.91;;;16.97;96.74
55671;BME280;41551;47.500;8.408;2022-08-01T04:38:48;96431.28;;;16.92;96.96
55671;BME280;41551;47.500;8.408;2022-08-01T04:41:18;96424.38;;;16.91;96.94
55671;BME280;41551;47.500;8.408;2022-08-01T04:43:46;96429.00;;;17.10;95.71
55671;BME280;41551;47.500;8.408;2022-08-01T04:46:13;96434.16;;;17.01;97.34
55671;BME280;41551;47.500;8.408;2022-08-01T04:48:41;96429.00;;;17.10;96.53
55671;BME280;41551;47.500;8.408;2022-08-01T04:51:12;96438.00;;;17.14;95.95
55671;BME280;41551;47.500;8.408;2022-08-01T04:53:40;96436.66;;;17.16;96.10
55671;BME280;41551;47.500;8.408;2022-08-01T04:56:07;96436.31;;;17.23;95.59
55671;BME280;41551;47.500;8.408;2022-08-01T04:58:35;96447.72;;;17.29;94.52
55671;BME280;41551;47.500;8.408;2022-08-01T05:01:02;96445.50;;;17.36;93.85
55671;BME280;41551;47.500;8.408;2022-08-01T05:03:29;96455.31;;;17.40;92.95
55671;BME280;41551;47.500;8.408;2022-08-01T05:05:55;96445.34;;;17.27;93.88
55671;BME280;41551;47.500;8.408;2022-08-01T05:08:22;96451.72;;;17.26;94.15
55671;BME280;41551;47.500;8.408;2022-08-01T05:10:49;96453.25;;;17.32;94.38
55671;BME280;41551;47.500;8.408;2022-08-01T05:13:17;96451.91;;;17.35;93.88
55671;BME280;41551;47.500;8.408;2022-08-01T05:15:45;96452.16;;;17.38;93.58
55671;BME280;41551;47.500;8.408;2022-08-01T05:18:12;96453.69;;;17.45;93.25
55671;BME280;41551;47.500;8.408;2022-08-01T05:20:39;96448.50;;;17.53;93.31
55671;BME280;41551;47.500;8.408;2022-08-01T05:23:07;96448.09;;;17.65;92.17
55671;BME280;41551;47.500;8.408;2022-08-01T05:25:34;96450.44;;;17.72;91.80
55671;BME280;41551;47.500;8.408;2022-08-01T05:28:00;96441.44;;;17.87;90.12
55671;BME280;41551;47.500;8.408;2022-08-01T05:30:27;96446.16;;;17.95;89.43
55671;BME280;41551;47.500;8.408;2022-08-01T05:32:55;96438.81;;;18.06;90.66
55671;BME280;41551;47.500;8.408;2022-08-01T05:35:22;96436.78;;;18.17;89.65
55671;BME280;41551;47.500;8.408;2022-08-01T05:37:49;96436.06;;;18.30;91.26
55671;BME280;41551;47.500;8.408;2022-08-01T05:40:16;96433.66;;;18.47;89.79
55671;BME280;41551;47.500;8.408;2022-08-01T05:42:43;96432.50;;;18.54;88.50
55671;BME280;41551;47.500;8.408;2022-08-01T05:45:10;96430.38;;;18.70;89.06
55671;BME280;41551;47.500;8.408;2022-08-01T05:47:37;96432.53;;;18.87;88.42
55671;BME280;41551;47.500;8.408;2022-08-01T05:50:06;96437.13;;;19.00;87.39
55671;BME280;41551;47.500;8.408;2022-08-01T05:52:32;96440.09;;;19.12;84.91
55671;BME280;41551;47.500;8.408;2022-08-01T05:54:59;96440.50;;;19.20;85.96
55671;BME280;41551;47.500;8.408;2022-08-01T05:57:27;96441.72;;;19.41;82.75
55671;BME280;41551;47.500;8.408;2022-08-01T05:59:54;96433.00;;;19.63;80.44
55671;BME280;41551;47.500;8.408;2022-08-01T06:02:21;96431.13;;;19.78;80.60
55671;BME280;41551;47.500;8.408;2022-08-01T06:04:47;96435.13;;;19.75;82.78
55671;BME280;41551;47.500;8.408;2022-08-01T06:07:15;96424.38;;;19.80;80.41
55671;BME280;41551;47.500;8.408;2022-08-01T06:09:42;96432.00;;;19.87;81.52
55671;BME280;41551;47.500;8.408;2022-08-01T06:12:09;96434.97;;;19.85;81.14
55671;BME280;41551;47.500;8.408;2022-08-01T06:14:36;96431.91;;;19.92;78.37
55671;BME280;41551;47.500;8.408;2022-08-01T06:17:02;96431.00;;;19.97;76.89
55671;BME280;41551;47.500;8.408;2022-08-01T06:19:29;96433.72;;;20.05;77.54
55671;BME280;41551;47.500;8.408;2022-08-01T06:21:56;96432.94;;;20.05;79.55
55671;BME280;41551;47.500;8.408;2022-08-01T06:24:24;96433.94;;;20.09;79.72
55671;BME280;41551;47.500;8.408;2022-08-01T06:26:52;96430.34;;;20.14;81.42
55671;BME280;41551;47.500;8.408;2022-08-01T06:29:18;96429.81;;;20.26;83.56
55671;BME280;41551;47.500;8.408;2022-08-01T06:31:45;96430.13;;;20.24;84.34
55671;BME280;41551;47.500;8.408;2022-08-01T06:34:12;96430.06;;;20.38;81.43
55671;BME280;41551;47.500;8.408;2022-08-01T06:36:40;96436.38;;;20.42;82.37
55671;BME280;41551;47.500;8.408;2022-08-01T06:39:07;96430.63;;;20.49;82.96
55671;BME280;41551;47.500;8.408;2022-08-01T06:41:35;96424.72;;;20.61;81.05
55671;BME280;41551;47.500;8.408;2022-08-01T06:44:02;96428.03;;;20.80;80.43
55671;BME280;41551;47.500;8.408;2022-08-01T06:46:29;96431.34;;;20.86;76.25
55671;BME280;41551;47.500;8.408;2022-08-01T06:48:56;96427.19;;;21.02;74.25
55671;BME280;41551;47.500;8.408;2022-08-01T06:51:23;96421.16;;;21.28;70.80
55671;BME280;41551;47.500;8.408;2022-08-01T06:53:50;96428.38;;;21.59;70.28
55671;BME280;41551;47.500;8.408;2022-08-01T06:56:16;96428.59;;;21.80;68.71
55671;BME280;41551;47.500;8.408;2022-08-01T06:58:44;96422.94;;;21.99;68.47
55671;BME280;41551;47.500;8.408;2022-08-01T07:01:11;96419.00;;;22.05;68.24
55671;BME280;41551;47.500;8.408;2022-08-01T07:03:38;96414.75;;;22.22;66.40
55671;BME280;41551;47.500;8.408;2022-08-01T07:06:05;96413.47;;;22.28;65.90
55671;BME280;41551;47.500;8.408;2022-08-01T07:08:32;96416.34;;;22.40;63.45
55671;BME280;41551;47.500;8.408;2022-08-01T07:10:58;96408.75;;;22.51;62.28
55671;BME280;41551;47.500;8.408;2022-08-01T07:13:26;96407.94;;;22.59;62.35
55671;BME280;41551;47.500;8.408;2022-08-01T07:15:54;96414.44;;;22.67;64.12
55671;BME280;41551;47.500;8.408;2022-08-01T07:18:21;96417.38;;;22.83;61.74
55671;BME280;41551;47.500;8.408;2022-08-01T07:20:50;96415.44;;;23.01;59.47
55671;BME280;41551;47.500;8.408;2022-08-01T07:23:17;96411.94;;;23.09;58.26
55671;BME280;41551;47.500;8.408;2022-08-01T07:25:44;96405.13;;;23.20;57.37
55671;BME280;41551;47.500;8.408;2022-08-01T07:28:11;96401.13;;;23.27;56.09
55671;BME280;41551;47.500;8.408;2022-08-01T07:30:38;96407.72;;;23.38;56.27
55671;BME280;41551;47.500;8.408;2022-08-01T07:33:08;96405.94;;;23.51;55.31
55671;BME280;41551;47.500;8.408;2022-08-01T07:35:40;96417.59;;;23.55;55.84
55671;BME280;41551;47.500;8.408;2022-08-01T07:38:07;96413.00;;;23.64;55.34
55671;BME280;41551;47.500;8.408;2022-08-01T07:40:34;96404.84;;;23.73;54.45
55671;BME280;41551;47.500;8.408;2022-08-01T07:43:02;96402.88;;;23.82;53.43
55671;BME280;41551;47.500;8.408;2022-08-01T07:45:31;96400.81;;;23.88;54.33
55671;BME280;41551;47.500;8.408;2022-08-01T07:48:02;96408.91;;;23.88;52.92
55671;BME280;41551;47.500;8.408;2022-08-01T07:50:31;96404.72;;;23.99;51.71
55671;BME280;41551;47.500;8.408;2022-08-01T07:52:58;96399.72;;;24.10;51.21
55671;BME280;41551;47.500;8.408;2022-08-01T07:55:25;96397.59;;;24.16;50.70
55671;BME280;41551;47.500;8.408;2022-08-01T07:57:52;96393.28;;;24.23;50.81
55671;BME280;41551;47.500;8.408;2022-08-01T08:00:19;96391.97;;;24.29;51.30
55671;BME280;41551;47.500;8.408;2022-08-01T08:02:46;96388.50;;;24.41;50.66
55671;BME280;41551;47.500;8.408;2022-08-01T08:05:13;96390.69;;;24.48;51.01
55671;BME280;41551;47.500;8.408;2022-08-01T08:07:41;96386.78;;;24.58;50.58
55671;BME280;41551;47.500;8.408;2022-08-01T08:10:08;96389.75;;;24.65;50.57
55671;BME280;41551;47.500;8.408;2022-08-01T08:12:35;96379.53;;;24.71;50.49
55671;BME280;41551;47.500;8.408;2022-08-01T08:15:02;96376.28;;;24.77;50.44
55671;BME280;41551;47.500;8.408;2022-08-01T08:17:31;96374.19;;;24.83;50.27
55671;BME280;41551;47.500;8.408;2022-08-01T08:19:59;96371.47;;;24.83;50.93
55671;BME280;41551;47.500;8.408;2022-08-01T08:22:26;96374.31;;;24.99;50.55
55671;BME280;41551;47.500;8.408;2022-08-01T08:24:54;96371.84;;;25.06;50.64
55671;BME280;41551;47.500;8.408;2022-08-01T08:27:21;96375.31;;;24.94;50.65
55671;BME280;41551;47.500;8.408;2022-08-01T08:29:47;96371.84;;;24.94;50.55
55671;BME280;41551;47.500;8.408;2022-08-01T08:32:14;96372.28;;;25.08;50.35
55671;BME280;41551;47.500;8.408;2022-08-01T08:34:41;96376.56;;;25.22;50.03
55671;BME280;41551;47.500;8.408;2022-08-01T08:37:08;96378.19;;;25.35;49.83
55671;BME280;41551;47.500;8.408;2022-08-01T08:39:35;96369.97;;;25.44;49.32
55671;BME280;41551;47.500;8.408;2022-08-01T08:42:06;96370.75;;;25.44;49.68
55671;BME280;41551;47.500;8.408;2022-08-01T08:44:32;96372.09;;;25.50;49.74
55671;BME280;41551;47.500;8.408;2022-08-01T08:47:03;96364.91;;;25.30;49.49
55671;BME280;41551;47.500;8.408;2022-08-01T08:49:31;96362.41;;;25.12;49.83
55671;BME280;41551;47.500;8.408;2022-08-01T08:52:01;96362.63;;;25.19;49.87
55671;BME280;41551;47.500;8.408;2022-08-01T08:54:29;96362.41;;;25.37;49.71
55671;BME280;41551;47.500;8.408;2022-08-01T08:56:57;96377.63;;;25.54;49.77
55671;BME280;41551;47.500;8.408;2022-08-01T08:59:26;96367.34;;;25.72;49.22
55671;BME280;41551;47.500;8.408;2022-08-01T09:01:53;96371.84;;;25.80;48.72
55671;BME280;41551;47.500;8.408;2022-08-01T09:04:21;96372.72;;;25.72;48.49
55671;BME280;41551;47.500;8.408;2022-08-01T09:06:48;96374.53;;;25.80;48.22
55671;BME280;41551;47.500;8.408;2022-08-01T09:09:15;96372.28;;;25.82;48.49
55671;BME280;41551;47.500;8.408;2022-08-01T09:11:42;96369.09;;;26.05;48.23
55671;BME280;41551;47.500;8.408;2022-08-01T09:14:10;96380.16;;;25.87;48.32
55671;BME280;41551;47.500;8.408;2022-08-01T09:16:40;96377.03;;;25.73;48.05
55671;BME280;41551;47.500;8.408;2022-08-01T09:19:10;96377.13;;;25.89;47.82
55671;BME280;41551;47.500;8.408;2022-08-01T09:21:37;96376.44;;;25.92;47.69
55671;BME280;41551;47.500;8.408;2022-08-01T09:24:13;96373.19;;;25.86;47.93
55671;BME280;41551;47.500;8.408;2022-08-01T09:26:40;96372.50;;;25.89;47.84
55671;BME280;41551;47.500;8.408;2022-08-01T09:29:17;96377.25;;;25.80;46.51
55671;BME280;41551;47.500;8.408;2022-08-01T09:31:46;96368.91;;;25.73;46.87
55671;BME280;41551;47.500;8.408;2022-08-01T09:34:14;96366.88;;;25.82;45.96
55671;BME280;41551;47.500;8.408;2022-08-01T09:36:46;96366.50;;;25.96;44.51
55671;BME280;41551;47.500;8.408;2022-08-01T09:39:17;96368.06;;;25.97;44.12
55671;BME280;41551;47.500;8.408;2022-08-01T09:41:44;96361.25;;;26.00;43.76
55671;BME280;41551;47.500;8.408;2022-08-01T09:44:11;96359.97;;;26.10;44.03
55671;BME280;41551;47.500;8.408;2022-08-01T09:46:50;96360.22;;;26.04;43.94
55671;BME280;41551;47.500;8.408;2022-08-01T09:49:28;96364.78;;;26.16;44.33
55671;BME280;41551;47.500;8.408;2022-08-01T09:51:55;96369.31;;;26.12;44.32
55671;BME280;41551;47.500;8.408;2022-08-01T09:54:31;96367.97;;;25.94;45.29
55671;BME280;41551;47.500;8.408;2022-08-01T09:57:10;96357.81;;;26.15;44.82
55671;BME280;41551;47.500;8.408;2022-08-01T09:59:39;96353.66;;;26.34;44.69
55671;BME280;41551;47.500;8.408;2022-08-01T10:02:09;96348.19;;;26.46;43.73
55671;BME280;41551;47.500;8.408;2022-08-01T10:04:46;96348.59;;;26.60;42.54
55671;BME280;41551;47.500;8.408;2022-08-01T10:07:12;96345.88;;;26.60;42.41
55671;BME280;41551;47.500;8.408;2022-08-01T10:09:42;96348.38;;;26.37;42.28
55671;BME280;41551;47.500;8.408;2022-08-01T10:12:10;96347.22;;;26.38;42.14
55671;BME280;41551;47.500;8.408;2022-08-01T10:14:38;96345.34;;;26.39;42.03
55671;BME280;41551;47.500;8.408;2022-08-01T10:17:07;96341.41;;;26.52;41.65
55671;BME280;41551;47.500;8.408;2022-08-01T10:19:36;96331.56;;;26.60;39.87
55671;BME280;41551;47.500;8.408;2022-08-01T10:22:07;96331.41;;;26.53;39.83
55671;BME280;41551;47.500;8.408;2022-08-01T10:24:36;96340.72;;;26.55;39.62
55671;BME280;41551;47.500;8.408;2022-08-01T10:27:05;96321.78;;;26.55;39.84
55671;BME280;41551;47.500;8.408;2022-08-01T10:29:36;96331.88;;;26.71;39.71
55671;BME280;41551;47.500;8.408;2022-08-01T10:32:04;96323.16;;;26.77;39.19
55671;BME280;41551;47.500;8.408;2022-08-01T10:34:31;96318.69;;;26.85;39.21
55671;BME280;41551;47.500;8.408;2022-08-01T10:37:01;96316.34;;;27.00;39.42
55671;BME280;41551;47.500;8.408;2022-08-01T10:39:30;96316.06;;;27.05;39.04
55671;BME280;41551;47.500;8.408;2022-08-01T10:41:58;96310.66;;;27.05;38.88
55671;BME280;41551;47.500;8.408;2022-08-01T10:44:27;96307.25;;;27.08;38.50
55671;BME280;41551;47.500;8.408;2022-08-01T10:46:59;96308.59;;;26.98;38.99
55671;BME280;41551;47.500;8.408;2022-08-01T10:49:30;96307.78;;;27.13;38.87
55671;BME280;41551;47.500;8.408;2022-08-01T10:51:58;96308.72;;;27.21;39.21
55671;BME280;41551;47.500;8.408;2022-08-01T10:54:27;96313.50;;;27.28;39.59
55671;BME280;41551;47.500;8.408;2022-08-01T10:56:54;96308.97;;;27.16;39.46
55671;BME280;41551;47.500;8.408;2022-08-01T10:59:24;96304.72;;;26.99;38.14
55671;BME280;41551;47.500;8.408;2022-08-01T11:01:58;96294.78;;;26.87;37.85
55671;BME280;41551;47.500;8.408;2022-08-01T11:04:34;96298.97;;;27.01;37.81
55671;BME280;41551;47.500;8.408;2022-08-01T11:07:07;96292.91;;;27.23;37.77
55671;BME280;41551;47.500;8.408;2022-08-01T11:09:42;96290.28;;;27.27;36.42
55671;BME280;41551;47.500;8.408;2022-08-01T11:12:11;96283.50;;;27.17;36.75
55671;BME280;41551;47.500;8.408;2022-08-01T11:17:43;96287.84;;;27.38;35.92
55671;BME280;41551;47.500;8.408;2022-08-01T11:20:14;96286.00;;;27.42;35.88
55671;BME280;41551;47.500;8.408;2022-08-01T11:23:15;96284.81;;;27.59;35.55
55671;BME280;41551;47.500;8.408;2022-08-01T11:26:10;96286.69;;;27.74;35.84
55671;BME280;41551;47.500;8.408;2022-08-01T11:28:37;96285.50;;;27.56;36.33
55671;BME280;41551;47.500;8.408;2022-08-01T11:31:27;96278.00;;;27.65;36.67
55671;BME280;41551;47.500;8.408;2022-08-01T11:33:55;96274.75;;;27.59;36.47
55671;BME280;41551;47.500;8.408;2022-08-01T11:36:21;96282.34;;;27.70;36.19
55671;BME280;41551;47.500;8.408;2022-08-01T11:39:10;96279.47;;;27.62;35.88
55671;BME280;41551;47.500;8.408;2022-08-01T11:41:48;96279.59;;;27.50;36.06
55671;BME280;41551;47.500;8.408;2022-08-01T11:44:17;96274.47;;;27.64;36.07
55671;BME280;41551;47.500;8.408;2022-08-01T11:46:56;96265.56;;;27.64;35.75
55671;BME280;41551;47.500;8.408;2022-08-01T11:49:43;96266.91;;;27.74;34.96
55671;BME280;41551;47.500;8.408;2022-08-01T11:52:12;96269.13;;;27.88;35.62
55671;BME280;41551;47.500;8.408;2022-08-01T11:54:40;96263.50;;;27.77;35.83
55671;BME280;41551;47.500;8.408;2022-08-01T11:57:10;96250.38;;;27.79;35.47
55671;BME280;41551;47.500;8.408;2022-08-01T11:59:39;96254.94;;;27.94;34.71
55671;BME280;41551;47.500;8.408;2022-08-01T12:02:20;96250.09;;;28.04;34.65
55671;BME280;41551;47.500;8.408;2022-08-01T12:04:50;96246.47;;;27.76;34.85
55671;BME280;41551;47.500;8.408;2022-08-01T12:07:18;96242.69;;;27.81;35.23
55671;BME280;41551;47.500;8.408;2022-08-01T12:09:45;96237.53;;;27.95;34.56
55671;BME280;41551;47.500;8.408;2022-08-01T12:12:16;96234.34;;;27.90;34.42
55671;BME280;41551;47.500;8.408;2022-08-01T12:14:52;96229.34;;;28.11;34.45
55671;BME280;41551;47.500;8.408;2022-08-01T12:17:27;96224.09;;;28.22;33.42
55671;BME280;41551;47.500;8.408;2022-08-01T12:19:54;96236.75;;;28.38;33.73
55671;BME280;41551;47.500;8.408;2022-08-01T12:22:23;96240.81;;;28.47;33.24
55671;BME280;41551;47.500;8.408;2022-08-01T12:24:50;96231.78;;;28.40;31.96
55671;BME280;41551;47.500;8.408;2022-08-01T12:27:26;96228.16;;;28.32;33.96
55671;BME280;41551;47.500;8.408;2022-08-01T12:29:53;96228.44;;;28.27;33.53
55671;BME280;41551;47.500;8.408;2022-08-01T12:32:22;96227.75;;;28.10;32.93
55671;BME280;41551;47.500;8.408;2022-08-01T12:34:50;96235.47;;;28.08;32.38
55671;BME280;41551;47.500;8.408;2022-08-01T12:37:17;96224.78;;;27.96;32.66
55671;BME280;41551;47.500;8.408;2022-08-01T12:39:44;96228.47;;;28.07;32.78
55671;BME280;41551;47.500;8.408;2022-08-01T12:42:12;96230.47;;;28.10;32.52
55671;BME280;41551;47.500;8.408;2022-08-01T12:44:43;96225.59;;;28.19;31.80
55671;BME280;41551;47.500;8.408;2022-08-01T12:47:12;96228.84;;;28.06;32.26
55671;BME280;41551;47.500;8.408;2022-08-01T12:49:41;96228.72;;;27.98;31.92
55671;BME280;41551;47.500;8.408;2022-08-01T12:52:09;96222.69;;;28.09;31.97
55671;BME280;41551;47.500;8.408;2022-08-01T12:55:08;96222.84;;;28.39;30.87
55671;BME280;41551;47.500;8.408;2022-08-01T12:57:36;96224.91;;;28.46;30.17
55671;BME280;41551;47.500;8.408;2022-08-01T13:00:17;96216.22;;;28.60;29.79
55671;BME280;41551;47.500;8.408;2022-08-01T13:02:45;96221.16;;;28.54;29.52
55671;BME280;41551;47.500;8.408;2022-08-01T13:05:13;96217.09;;;28.64;29.35
55671;BME280;41551;47.500;8.408;2022-08-01T13:07:43;96211.91;;;28.82;29.34
55671;BME280;41551;47.500;8.408;2022-08-01T13:10:11;96199.66;;;28.92;28.01
55671;BME280;41551;47.500;8.408;2022-08-01T13:12:38;96200.91;;;28.98;27.55
55671;BME280;41551;47.500;8.408;2022-08-01T13:15:22;96206.81;;;29.03;27.56